createdAt,value
2022-11-15T00:00:55.476Z,7.60
2022-11-15T00:03:40.944Z,7.60
2022-11-15T00:06:26.573Z,7.60
2022-11-15T00:09:11.930Z,7.60
2022-11-15T00:11:57.581Z,7.60
2022-11-15T00:14:43.574Z,7.70
2022-11-15T00:17:29.004Z,7.70
2022-11-15T00:20:14.829Z,7.70
2022-11-15T00:23:01.093Z,7.80
2022-11-15T00:25:46.783Z,7.70
2022-11-15T00:28:32.177Z,7.80
2022-11-15T00:31:17.779Z,7.80
2022-11-15T00:34:03.285Z,7.90
2022-11-15T00:36:48.912Z,7.90
2022-11-15T00:39:34.529Z,8.00
2022-11-15T00:42:20.116Z,8.00
2022-11-15T00:45:07.272Z,8.00
2022-11-15T00:47:53.126Z,8.10
2022-11-15T00:50:38.833Z,8.00
2022-11-15T00:53:24.289Z,8.10
2022-11-15T00:56:09.978Z,8.10
2022-11-15T00:58:55.615Z,8.20
2022-11-15T01:01:40.959Z,8.20
2022-11-15T01:04:26.408Z,8.20
2022-11-15T01:07:12.591Z,8.30
2022-11-15T01:09:57.964Z,8.30
2022-11-15T01:12:43.351Z,8.30
2022-11-15T01:15:28.778Z,8.40
2022-11-15T01:18:14.455Z,8.40
2022-11-15T01:20:59.736Z,8.40
2022-11-15T01:23:45.958Z,8.50
2022-11-15T01:26:31.689Z,8.50
2022-11-15T01:29:17.320Z,8.60
2022-11-15T01:32:03.673Z,8.60
2022-11-15T01:34:49.414Z,8.70
2022-11-15T01:37:35.070Z,8.70
2022-11-15T01:40:20.296Z,8.80
2022-11-15T01:43:27.573Z,8.90
2022-11-15T01:46:24.021Z,9.00
2022-11-15T01:49:18.669Z,9.00
2022-11-15T01:52:12.260Z,9.10
2022-11-15T01:55:06.543Z,9.10
2022-11-15T01:57:58.149Z,9.20
2022-11-15T02:00:44.168Z,9.30
2022-11-15T02:03:40.829Z,9.30
2022-11-15T02:06:26.308Z,9.40
2022-11-15T02:09:13.383Z,9.50
2022-11-15T02:12:00.180Z,9.50
2022-11-15T02:14:52.965Z,9.60
2022-11-15T02:18:08.415Z,9.70
2022-11-15T02:21:22.157Z,9.60
2022-11-15T02:24:25.983Z,9.70
2022-11-15T02:27:32.465Z,9.70
2022-11-15T02:30:39.072Z,9.70
2022-11-15T02:33:45.566Z,9.80
2022-11-15T02:36:43.773Z,9.80
2022-11-15T02:39:52.223Z,9.90
2022-11-15T02:43:07.948Z,9.90
2022-11-15T02:46:19.619Z,10.00
2022-11-15T02:49:05.809Z,10.00
2022-11-15T02:51:52.969Z,9.90
2022-11-15T02:54:38.413Z,9.90
2022-11-15T02:57:43.320Z,10.00
2022-11-15T03:00:36.164Z,10.00
2022-11-15T03:03:44.946Z,10.00
2022-11-15T03:06:53.173Z,10.00
2022-11-15T03:09:57.991Z,10.10
2022-11-15T03:12:53.169Z,10.20
2022-11-15T03:15:43.888Z,10.20
2022-11-15T03:18:52.866Z,10.20
2022-11-15T03:21:40.608Z,10.30
2022-11-15T03:24:28.111Z,10.20
2022-11-15T03:27:18.541Z,10.20
2022-11-15T03:30:08.007Z,10.30
2022-11-15T03:32:57.930Z,10.30
2022-11-15T03:35:45.793Z,10.20
2022-11-15T03:38:34.158Z,10.20
2022-11-15T03:41:31.964Z,10.20
2022-11-15T03:44:24.761Z,10.10
2022-11-15T03:47:37.365Z,10.10
2022-11-15T03:50:25.155Z,10.20
2022-11-15T03:53:11.390Z,10.10
2022-11-15T03:55:57.544Z,10.20
2022-11-15T03:58:43.350Z,10.20
2022-11-15T04:01:29.209Z,10.20
2022-11-15T04:04:14.730Z,10.20
2022-11-15T04:07:00.354Z,10.10
2022-11-15T04:10:04.254Z,10.10
2022-11-15T04:12:49.603Z,10.10
2022-11-15T04:15:35.679Z,10.20
2022-11-15T04:18:21.741Z,10.10
2022-11-15T04:21:26.040Z,10.20
2022-11-15T04:24:14.491Z,10.20
2022-11-15T04:27:00.455Z,10.20
2022-11-15T04:29:46.609Z,10.20
2022-11-15T04:32:32.289Z,10.20
2022-11-15T04:35:20.307Z,10.30
2022-11-15T04:38:08.515Z,10.30
2022-11-15T04:40:54.098Z,10.30
2022-11-15T04:43:39.801Z,10.30
2022-11-15T04:46:26.169Z,10.20
2022-11-15T04:49:11.882Z,10.20
2022-11-15T04:51:57.505Z,10.30
2022-11-15T04:54:43.697Z,10.40
2022-11-15T04:57:31.297Z,10.40
2022-11-15T05:00:18.384Z,10.30
2022-11-15T05:03:22.792Z,10.30
2022-11-15T05:06:08.523Z,10.30
2022-11-15T05:08:56.930Z,10.30
2022-11-15T05:11:45.473Z,10.40
2022-11-15T05:14:31.827Z,10.40
2022-11-15T05:17:19.881Z,10.40
2022-11-15T05:20:07.018Z,10.40
2022-11-15T05:22:53.447Z,10.50
2022-11-15T05:25:41.477Z,10.40
2022-11-15T05:28:27.981Z,10.50
2022-11-15T05:31:18.550Z,10.50
2022-11-15T05:34:06.413Z,10.40
2022-11-15T05:36:52.433Z,10.40
2022-11-15T05:39:38.148Z,10.40
2022-11-15T05:42:27.487Z,10.40
2022-11-15T05:45:13.369Z,10.40
2022-11-15T05:48:01.353Z,10.40
2022-11-15T05:50:51.336Z,10.40
2022-11-15T05:53:38.457Z,10.40
2022-11-15T05:56:26.607Z,10.40
2022-11-15T05:59:13.057Z,10.50
2022-11-15T06:01:58.858Z,10.40
2022-11-15T06:04:44.571Z,10.40
2022-11-15T06:07:33.569Z,10.40
2022-11-15T06:10:19.596Z,10.40
2022-11-15T06:13:05.930Z,10.30
2022-11-15T06:15:51.885Z,10.30
2022-11-15T06:18:38.441Z,10.30
2022-11-15T06:21:24.123Z,10.40
2022-11-15T06:24:09.900Z,10.40
2022-11-15T06:26:55.776Z,10.30
2022-11-15T06:29:41.545Z,10.40
2022-11-15T06:32:33.147Z,10.40
2022-11-15T06:35:19.298Z,10.40
2022-11-15T06:38:11.033Z,10.30
2022-11-15T06:41:01.852Z,10.40
2022-11-15T06:43:47.819Z,10.30
2022-11-15T06:46:33.701Z,10.30
2022-11-15T06:49:19.395Z,10.30
2022-11-15T06:52:05.451Z,10.30
2022-11-15T06:54:50.766Z,10.20
2022-11-15T06:57:37.506Z,10.20
2022-11-15T07:00:24.485Z,10.20
2022-11-15T07:03:10.267Z,10.20
2022-11-15T07:06:02.743Z,10.20
2022-11-15T07:08:52.083Z,10.10
2022-11-15T07:11:37.660Z,10.10
2022-11-15T07:14:23.177Z,10.10
2022-11-15T07:17:08.758Z,10.10
2022-11-15T07:19:54.646Z,10.10
2022-11-15T07:22:43.347Z,10.10
2022-11-15T07:25:29.469Z,10.20
2022-11-15T07:28:15.296Z,10.20
2022-11-15T07:31:05.037Z,10.20
2022-11-15T07:33:50.543Z,10.20
2022-11-15T07:36:36.036Z,10.20
2022-11-15T07:39:22.041Z,10.20
2022-11-15T07:42:26.179Z,10.20
2022-11-15T07:45:12.087Z,10.20
2022-11-15T07:47:58.190Z,10.20
2022-11-15T07:50:44.184Z,10.20
2022-11-15T07:53:30.164Z,10.20
2022-11-15T07:56:16.067Z,10.10
2022-11-15T07:59:02.024Z,10.10
2022-11-15T08:01:47.775Z,10.20
2022-11-15T08:04:33.678Z,10.20
2022-11-15T08:07:19.583Z,10.20
2022-11-15T08:10:06.961Z,10.20
2022-11-15T08:13:07.299Z,10.20
2022-11-15T08:15:57.605Z,10.30
2022-11-15T08:18:44.526Z,10.30
2022-11-15T08:21:30.163Z,10.30
2022-11-15T08:24:16.325Z,10.30
2022-11-15T08:27:01.993Z,10.30
2022-11-15T08:29:49.968Z,10.30
2022-11-15T08:32:35.978Z,10.30
2022-11-15T08:35:26.282Z,10.40
2022-11-15T08:38:14.872Z,10.40
2022-11-15T08:41:05.764Z,10.40
2022-11-15T08:43:51.638Z,10.50
2022-11-15T08:46:37.230Z,10.50
2022-11-15T08:49:22.858Z,10.50
2022-11-15T08:52:08.774Z,10.50
2022-11-15T08:54:54.594Z,10.50
2022-11-15T08:57:40.569Z,10.60
2022-11-15T09:00:26.403Z,10.60
2022-11-15T09:03:12.085Z,10.70
2022-11-15T09:06:00.378Z,10.70
2022-11-15T09:08:47.894Z,10.80
2022-11-15T09:11:34.004Z,10.80
2022-11-15T09:14:19.544Z,10.80
2022-11-15T09:17:09.623Z,10.80
2022-11-15T09:19:55.586Z,10.80
2022-11-15T09:22:41.252Z,10.80
2022-11-15T09:25:26.960Z,10.90
2022-11-15T09:28:12.318Z,11.00
2022-11-15T09:30:59.914Z,11.10
2022-11-15T09:33:48.768Z,11.20
2022-11-15T09:36:34.677Z,11.20
2022-11-15T09:39:20.806Z,11.30
2022-11-15T09:42:22.755Z,11.40
2022-11-15T09:45:08.127Z,11.40
2022-11-15T09:48:13.328Z,11.30
2022-11-15T09:50:59.856Z,11.30
2022-11-15T09:54:37.397Z,11.30
2022-11-15T09:56:42.439Z,11.30
2022-11-15T09:59:32.676Z,11.40
2022-11-15T10:02:11.753Z,11.50
2022-11-15T10:04:40.637Z,11.60
2022-11-15T10:07:27.049Z,11.60
2022-11-15T10:10:11.927Z,11.60
2022-11-15T10:12:39.836Z,11.40
2022-11-15T10:15:14.079Z,11.50
2022-11-15T10:17:59.078Z,11.50
2022-11-15T10:20:28.787Z,11.60
2022-11-15T10:23:08.132Z,11.60
2022-11-15T10:25:35.765Z,11.70
2022-11-15T10:28:15.089Z,11.80
2022-11-15T10:31:03.147Z,11.90
2022-11-15T10:33:35.713Z,11.80
2022-11-15T10:36:26.606Z,11.90
2022-11-15T10:38:56.235Z,11.70
2022-11-15T10:41:30.572Z,11.70
2022-11-15T10:44:20.049Z,11.80
2022-11-15T10:47:04.395Z,11.80
2022-11-15T10:49:33.896Z,11.90
2022-11-15T10:52:18.578Z,11.90
2022-11-15T10:54:49.574Z,12.00
2022-11-15T10:57:23.811Z,12.00
2022-11-15T10:59:54.302Z,12.00
2022-11-15T11:02:40.028Z,12.00
2022-11-15T11:05:28.075Z,12.10
2022-11-15T11:08:04.706Z,12.10
2022-11-15T11:13:25.602Z,11.90
2022-11-15T11:16:16.057Z,12.00
2022-11-15T11:18:55.177Z,12.00
2022-11-15T11:21:49.736Z,12.00
2022-11-15T11:24:42.021Z,12.20
2022-11-15T11:27:35.250Z,12.30
2022-11-15T11:30:08.416Z,12.40
2022-11-15T11:32:59.421Z,12.40
2022-11-15T11:36:20.493Z,12.50
2022-11-15T11:39:00.508Z,12.50
2022-11-15T11:41:58.295Z,12.60
2022-11-15T11:44:35.460Z,12.50
2022-11-15T11:47:05.230Z,12.70
2022-11-15T11:49:36.924Z,12.60
2022-11-15T11:52:13.643Z,12.70
2022-11-15T11:54:59.637Z,12.70
2022-11-15T11:57:49.826Z,12.80
2022-11-15T12:00:22.716Z,12.80
2022-11-15T12:03:06.636Z,12.80
2022-11-15T12:05:38.812Z,12.80
2022-11-15T12:08:34.325Z,12.70
2022-11-15T12:11:23.026Z,12.80
2022-11-15T12:13:58.890Z,12.80
2022-11-15T12:16:31.136Z,12.80
2022-11-15T12:19:02.368Z,12.80
2022-11-15T12:21:56.973Z,12.80
2022-11-15T12:24:34.768Z,12.80
2022-11-15T12:27:20.550Z,12.80
2022-11-15T12:29:55.583Z,12.80
2022-11-15T12:32:50.024Z,12.70
2022-11-15T12:35:31.977Z,12.70
2022-11-15T12:37:59.109Z,12.70
2022-11-15T12:40:27.165Z,12.60
2022-11-15T12:43:45.514Z,12.50
2022-11-15T12:46:23.324Z,12.50
2022-11-15T12:48:53.136Z,12.50
2022-11-15T12:52:00.870Z,12.40
2022-11-15T12:54:30.112Z,12.40
2022-11-15T12:57:09.957Z,12.50
2022-11-15T12:59:53.080Z,12.50
2022-11-15T13:02:27.639Z,12.50
2022-11-15T13:05:16.234Z,12.50
2022-11-15T13:07:43.222Z,12.50
2022-11-15T13:10:14.491Z,12.60
2022-11-15T13:12:47.655Z,12.60
2022-11-15T13:15:14.598Z,12.60
2022-11-15T13:17:48.946Z,12.60
2022-11-15T13:20:15.869Z,12.60
2022-11-15T13:22:52.053Z,12.60
2022-11-15T13:25:37.187Z,12.60
2022-11-15T13:28:25.836Z,12.60
2022-11-15T13:30:55.943Z,12.60
2022-11-15T13:33:35.677Z,12.60
2022-11-15T13:36:05.381Z,12.60
2022-11-15T13:38:35.439Z,12.60
2022-11-15T13:41:15.220Z,12.60
2022-11-15T13:43:42.205Z,12.60
2022-11-15T13:46:14.054Z,12.60
2022-11-15T13:48:42.250Z,12.60
2022-11-15T13:51:32.314Z,12.60
2022-11-15T13:54:09.252Z,12.60
2022-11-15T13:56:37.752Z,12.60
2022-11-15T14:00:15.355Z,12.50
2022-11-15T14:02:42.406Z,12.50
2022-11-15T14:05:23.584Z,12.50
2022-11-15T14:08:15.654Z,12.50
2022-11-15T14:10:42.558Z,12.50
2022-11-15T14:13:31.905Z,12.50
2022-11-15T14:16:20.340Z,12.50
2022-11-15T14:18:52.448Z,12.50
2022-11-15T14:21:21.907Z,12.50
2022-11-15T14:23:50.151Z,12.50
2022-11-15T14:26:46.189Z,12.50
2022-11-15T14:29:46.497Z,12.50
2022-11-15T14:32:27.049Z,12.50
2022-11-15T14:35:02.693Z,12.50
2022-11-15T14:37:39.070Z,12.50
2022-11-15T14:40:13.629Z,12.50
2022-11-15T14:42:44.173Z,12.50
2022-11-15T14:45:16.230Z,12.60
2022-11-15T14:47:44.500Z,12.60
2022-11-15T14:50:20.677Z,12.50
2022-11-15T14:52:49.238Z,12.60
2022-11-15T14:55:24.335Z,12.50
2022-11-15T14:57:51.950Z,12.50
2022-11-15T15:00:20.107Z,12.50
2022-11-15T15:02:48.652Z,12.50
2022-11-15T15:05:46.491Z,12.50
2022-11-15T15:08:16.924Z,12.40
2022-11-15T15:10:46.086Z,12.50
2022-11-15T15:13:24.019Z,12.50
2022-11-15T15:15:53.497Z,12.50
2022-11-15T15:18:21.363Z,12.50
2022-11-15T15:21:05.334Z,12.40
2022-11-15T15:23:32.534Z,12.40
2022-11-15T15:25:59.800Z,12.40
2022-11-15T15:28:34.844Z,12.40
2022-11-15T15:31:03.200Z,12.40
2022-11-15T15:33:30.516Z,12.40
2022-11-15T15:35:57.529Z,12.40
2022-11-15T15:38:26.026Z,12.30
2022-11-15T15:40:53.028Z,12.30
2022-11-15T15:43:19.922Z,12.30
2022-11-15T15:45:47.536Z,12.30
2022-11-15T15:48:16.646Z,12.30
2022-11-15T15:50:44.242Z,12.30
2022-11-15T15:53:12.361Z,12.40
2022-11-15T15:55:39.434Z,12.30
2022-11-15T15:58:07.235Z,12.30
2022-11-15T16:00:34.896Z,12.20
2022-11-15T16:03:01.937Z,12.10
2022-11-15T16:05:28.962Z,12.10
2022-11-15T16:07:58.547Z,12.00
2022-11-15T16:10:31.989Z,11.90
2022-11-15T16:12:59.303Z,11.90
2022-11-15T16:15:34.956Z,11.90
2022-11-15T16:18:03.068Z,11.80
2022-11-15T16:20:46.578Z,11.80
2022-11-15T16:23:15.852Z,11.80
2022-11-15T16:25:50.309Z,11.70
2022-11-15T16:28:23.109Z,11.70
2022-11-15T16:30:59.715Z,11.60
2022-11-15T16:33:26.659Z,11.60
2022-11-15T16:35:53.809Z,11.60
2022-11-15T16:38:20.979Z,11.50
2022-11-15T16:40:47.969Z,11.50
2022-11-15T16:43:20.653Z,11.50
2022-11-15T16:45:47.676Z,11.50
2022-11-15T16:48:28.502Z,11.50
2022-11-15T16:50:57.572Z,11.50
2022-11-15T16:53:28.098Z,11.50
2022-11-15T16:55:56.356Z,11.50
2022-11-15T16:58:23.875Z,11.40
2022-11-15T17:00:53.196Z,11.40
2022-11-15T17:03:21.125Z,11.40
2022-11-15T17:05:48.208Z,11.30
2022-11-15T17:08:15.114Z,11.40
2022-11-15T17:10:42.396Z,11.30
2022-11-15T17:13:15.310Z,11.30
2022-11-15T17:15:42.424Z,11.30
2022-11-15T17:18:15.899Z,11.30
2022-11-15T17:20:43.417Z,11.30
2022-11-15T17:23:14.897Z,11.30
2022-11-15T17:25:42.529Z,11.30
2022-11-15T17:28:10.127Z,11.30
2022-11-15T17:30:37.081Z,11.30
2022-11-15T17:33:05.146Z,11.30
2022-11-15T17:35:32.029Z,11.20
2022-11-15T17:37:58.862Z,11.30
2022-11-15T17:40:25.847Z,11.20
2022-11-15T17:42:53.398Z,11.30
2022-11-15T17:45:20.213Z,11.30
2022-11-15T17:47:47.390Z,11.20
2022-11-15T17:50:14.675Z,11.20
2022-11-15T17:52:41.835Z,11.20
2022-11-15T17:55:09.288Z,11.20
2022-11-15T17:57:36.196Z,11.20
2022-11-15T18:00:04.944Z,11.20
2022-11-15T18:02:31.821Z,11.20
2022-11-15T18:04:58.947Z,11.30
2022-11-15T18:07:26.462Z,11.20
2022-11-15T18:09:53.846Z,11.20
2022-11-15T18:12:20.877Z,11.30
2022-11-15T18:14:47.985Z,11.20
2022-11-15T18:17:18.176Z,11.20
2022-11-15T18:19:48.676Z,11.30
2022-11-15T18:22:15.785Z,11.30
2022-11-15T18:24:45.025Z,11.30
2022-11-15T18:27:11.956Z,11.30
2022-11-15T18:29:38.956Z,11.30
2022-11-15T18:32:11.689Z,11.30
2022-11-15T18:34:39.159Z,11.30
2022-11-15T18:37:06.506Z,11.30
2022-11-15T18:39:34.940Z,11.30
2022-11-15T18:42:02.249Z,11.30
2022-11-15T18:44:30.588Z,11.30
2022-11-15T18:46:58.494Z,11.40
2022-11-15T18:49:25.462Z,11.40
2022-11-15T18:51:52.748Z,11.40
2022-11-15T18:54:19.747Z,11.30
2022-11-15T18:56:47.316Z,11.30
2022-11-15T18:59:15.321Z,11.30
2022-11-15T19:01:48.992Z,11.30
2022-11-15T19:04:18.769Z,11.30
2022-11-15T19:06:47.689Z,11.40
2022-11-15T19:09:17.634Z,11.30
2022-11-15T19:11:47.533Z,11.40
2022-11-15T19:14:17.369Z,11.40
2022-11-15T19:16:50.113Z,11.40
2022-11-15T19:19:20.761Z,11.40
2022-11-15T19:21:47.874Z,11.40
2022-11-15T19:24:15.408Z,11.40
2022-11-15T19:26:42.953Z,11.40
2022-11-15T19:29:10.838Z,11.40
2022-11-15T19:31:38.595Z,11.40
2022-11-15T19:34:06.896Z,11.40
2022-11-15T19:36:39.437Z,11.40
2022-11-15T19:39:10.077Z,11.40
2022-11-15T19:41:38.841Z,11.40
2022-11-15T19:44:07.125Z,11.40
2022-11-15T19:46:34.665Z,11.40
2022-11-15T19:49:01.972Z,11.40
2022-11-15T19:51:30.968Z,11.50
2022-11-15T19:54:06.663Z,11.50
2022-11-15T19:56:35.144Z,11.50
2022-11-15T19:59:02.925Z,11.40
2022-11-15T20:01:31.920Z,11.50
2022-11-15T20:03:59.986Z,11.40
2022-11-15T20:06:29.979Z,11.40
2022-11-15T20:08:57.632Z,11.40
2022-11-15T20:11:26.798Z,11.40
2022-11-15T20:13:58.753Z,11.50
2022-11-15T20:16:26.524Z,11.40
2022-11-15T20:18:54.081Z,11.40
2022-11-15T20:21:22.140Z,11.40
2022-11-15T20:23:53.163Z,11.40
2022-11-15T20:26:21.017Z,11.40
2022-11-15T20:28:51.840Z,11.40
2022-11-15T20:31:20.711Z,11.50
2022-11-15T20:33:52.033Z,11.50
2022-11-15T20:36:19.030Z,11.50
2022-11-15T20:38:46.176Z,11.50
2022-11-15T20:41:15.226Z,11.50
2022-11-15T20:43:44.054Z,11.50
2022-11-15T20:46:12.918Z,11.50
2022-11-15T20:48:40.666Z,11.50
2022-11-15T20:51:15.198Z,11.60
2022-11-15T20:53:45.002Z,11.50
2022-11-15T20:56:19.192Z,11.50
2022-11-15T20:58:48.775Z,11.50
2022-11-15T21:01:17.955Z,11.60
2022-11-15T21:03:47.661Z,11.60
2022-11-15T21:06:15.455Z,11.60
2022-11-15T21:09:00.648Z,11.60
2022-11-15T21:11:46.352Z,11.60
2022-11-15T21:14:13.395Z,11.60
2022-11-15T21:16:40.453Z,11.70
2022-11-15T21:19:07.850Z,11.70
2022-11-15T21:21:36.797Z,11.60
2022-11-15T21:24:05.975Z,11.60
2022-11-15T21:26:34.160Z,11.60
2022-11-15T21:29:02.536Z,11.60
2022-11-15T21:31:30.151Z,11.60
2022-11-15T21:33:57.076Z,11.60
2022-11-15T21:36:25.148Z,11.60
2022-11-15T21:38:52.636Z,11.60
2022-11-15T21:41:19.657Z,11.60
2022-11-15T21:43:46.943Z,11.70
2022-11-15T21:46:14.011Z,11.60
2022-11-15T21:48:44.569Z,11.70
2022-11-15T21:51:13.534Z,11.60
2022-11-15T21:53:40.492Z,11.70
2022-11-15T21:56:08.447Z,11.70
2022-11-15T21:58:36.229Z,11.70
2022-11-15T22:01:23.080Z,11.70
2022-11-15T22:03:50.397Z,11.70
2022-11-15T22:06:18.396Z,11.70
2022-11-15T22:08:46.631Z,11.70
2022-11-15T22:11:15.642Z,11.70
2022-11-15T22:13:43.057Z,11.70
2022-11-15T22:16:10.217Z,11.70
2022-11-15T22:18:38.064Z,11.70
2022-11-15T22:21:10.361Z,11.70
2022-11-15T22:23:38.113Z,11.70
2022-11-15T22:26:05.821Z,11.70
2022-11-15T22:28:34.009Z,11.60
2022-11-15T22:31:01.734Z,11.60
2022-11-15T22:33:30.825Z,11.70
2022-11-15T22:35:58.110Z,11.70
2022-11-15T22:38:25.793Z,11.60
2022-11-15T22:40:52.918Z,11.60
2022-11-15T22:43:22.245Z,11.60
2022-11-15T22:45:53.805Z,11.70
2022-11-15T22:48:23.020Z,11.60
2022-11-15T22:50:51.041Z,11.60
2022-11-15T22:53:18.636Z,11.60
2022-11-15T22:55:53.422Z,11.60
2022-11-15T22:58:25.045Z,11.60
2022-11-15T23:00:54.497Z,11.60
2022-11-15T23:03:22.647Z,11.70
2022-11-15T23:05:49.852Z,11.70
2022-11-15T23:08:21.214Z,11.70
2022-11-15T23:11:06.929Z,11.70
2022-11-15T23:13:33.916Z,11.70
2022-11-15T23:16:46.233Z,11.70
2022-11-15T23:19:13.516Z,11.70
2022-11-15T23:22:04.516Z,11.70
2022-11-15T23:24:34.671Z,11.70
2022-11-15T23:27:09.719Z,11.70
2022-11-15T23:29:55.903Z,11.70
2022-11-15T23:32:41.838Z,11.70
2022-11-15T23:35:08.926Z,11.70
2022-11-15T23:37:36.131Z,11.70
2022-11-15T23:40:03.237Z,11.70
2022-11-15T23:42:30.407Z,11.70
2022-11-15T23:44:57.294Z,11.70
2022-11-15T23:47:26.439Z,11.70
2022-11-15T23:49:53.339Z,11.80
2022-11-15T23:52:23.022Z,11.70
2022-11-15T23:54:50.275Z,11.70
2022-11-15T23:57:18.625Z,11.70
2022-11-15T23:59:45.508Z,11.70
